Time;durP1;ratioP1;P1;durP2;ratioP2;P2;SDS_P1;SDS_P2;PMS_P1;PMS_P2;Temp;Humidity;BMP_temperature;BMP_pressure;BME280_temperature;BME280_humidity;BME280_pressure;Samples;Min_cycle;Max_cycle;Signal;HPM_P1;HPM_P2
2022/09/19 00:00:45;;;;;;;0.00;0.00;;;10.60;99.90;;;;;;6140505;23;20043;-96
2022/09/19 00:03:23;;;;;;;0.00;0.00;;;10.50;99.90;;;;;;6143575;23;20326;-95
2022/09/19 00:06:27;;;;;;;;;;;;;;;;;;;;;
2022/09/19 00:19:28;;;;;;;0.10;0.10;;;9.80;99.90;;;;;;6055047;23;20025;-95
2022/09/19 00:22:20;;;;;;;0.00;0.00;;;10.50;99.90;;;;;;6144820;23;20021;-94
2022/09/19 00:25:25;;;;;;;;;;;;;;;;;;;;;
2022/09/19 00:28:29;;;;;;;;;;;;;;;;;;;;;
2022/09/19 00:34:45;;;;;;;;;;;;;;;;;;;;;
2022/09/19 00:53:07;;;;;;;;;;;;;;;;;;;;;
2022/09/19 01:00:00;;;;;;;0.00;0.00;;;10.50;99.90;;;;;;5842944;24;20018;-95
2022/09/19 01:05:49;;;;;;;0.00;0.00;;;10.60;99.90;;;;;;5901523;23;20020;-95
2022/09/19 01:08:51;;;;;;;0.93;0.00;;;10.50;99.90;;;;;;6037259;23;20123;-96
2022/09/19 01:18:40;;;;;;;0.00;0.00;;;10.60;99.90;;;;;;6168132;23;20020;-95
2022/09/19 01:22:21;;;;;;;;;;;;;;;;;;;;;
2022/09/19 01:25:46;;;;;;;;;;;;;;;;;;;;;
2022/09/19 01:29:01;;;;;;;0.00;0.00;;;10.50;99.90;;;;;;6188784;23;20087;-95
2022/09/19 01:32:43;;;;;;;;;;;;;;;;;;;;;
2022/09/19 01:56:50;;;;;;;;;;;;;;;;;;;;;
2022/09/19 02:11:01;;;;;;;;;;;;;;;;;;;;;
2022/09/19 02:14:07;;;;;;;;;;;;;;;;;;;;;
2022/09/19 02:17:54;;;;;;;;;;;;;;;;;;;;;
2022/09/19 02:28:48;;;;;;;0.00;0.00;;;10.70;99.90;;;;;;6011017;23;20030;-96
2022/09/19 02:39:43;;;;;;;;;;;;;;;;;;;;;
2022/09/19 02:47:14;;;;;;;;;;;;;;;;;;;;;
2022/09/19 02:54:33;;;;;;;;;;;;;;;;;;;;;
2022/09/19 03:17:06;;;;;;;;;;;;;;;;;;;;;
2022/09/19 04:08:07;;;;;;;0.00;0.00;;;10.70;99.90;;;;;;6178895;23;20025;-95
2022/09/19 04:30:20;;;;;;;;;;;;;;;;;;;;;
2022/09/19 04:54:56;;;;;;;0.00;0.00;;;10.80;99.90;;;;;;5811948;22;11130237;-94
2022/09/19 04:57:26;;;;;;;0.00;0.00;;;10.80;99.90;;;;;;6256599;22;20015;-94
2022/09/19 04:59:55;;;;;;;0.45;0.15;;;10.80;99.90;;;;;;6257860;22;20020;-94
2022/09/19 05:02:41;;;;;;;0.00;0.00;;;10.90;99.90;;;;;;6231934;22;20108;-94
2022/09/19 05:05:17;;;;;;;0.00;0.00;;;10.80;99.90;;;;;;6257883;22;20030;-94
2022/09/19 05:08:11;;;;;;;0.00;0.00;;;10.90;99.90;;;;;;6258292;22;20023;-94
2022/09/19 05:13:40;;;;;;;0.00;0.00;;;10.90;99.90;;;;;;6220856;22;20098;-94
2022/09/19 05:16:11;;;;;;;0.00;0.00;;;10.80;99.90;;;;;;6256770;22;20094;-93
2022/09/19 05:18:51;;;;;;;0.00;0.00;;;10.90;99.90;;;;;;6233151;22;20069;-93
2022/09/19 05:21:20;;;;;;;;;;;10.80;99.90;;;;;;6257277;22;20016;-91
2022/09/19 05:23:46;;;;;;;0.00;0.00;;;10.90;99.90;;;;;;6256816;22;19925;-94
2022/09/19 05:26:17;;;;;;;0.00;0.00;;;10.90;99.90;;;;;;6256353;22;20043;-94
2022/09/19 05:28:51;;;;;;;0.00;0.00;;;11.00;99.90;;;;;;6234586;22;20268;-93
2022/09/19 05:31:47;;;;;;;;;;;;;;;;;;;;;
2022/09/19 05:34:47;;;;;;;0.10;0.00;;;10.80;99.90;;;;;;6261613;22;20024;-94
2022/09/19 05:37:46;;;;;;;;;;;;;;;;;;;;;
2022/09/19 05:40:15;;;;;;;0.00;0.00;;;10.80;99.90;;;;;;6281942;22;20470;-93
2022/09/19 05:42:57;;;;;;;0.00;0.00;;;10.80;99.90;;;;;;6257239;22;20011;-93
2022/09/19 05:45:32;;;;;;;0.00;0.00;;;10.20;99.90;;;;;;6257887;22;20023;-94
2022/09/19 05:48:16;;;;;;;0.05;0.05;;;10.80;99.90;;;;;;6258201;22;20018;-93
2022/09/19 05:51:11;;;;;;;0.00;0.00;;;10.80;99.90;;;;;;6260606;22;20011;-94
2022/09/19 05:53:55;;;;;;;0.00;0.00;;;10.70;99.90;;;;;;6282413;22;20024;-94
2022/09/19 05:56:21;;;;;;;0.03;0.03;;;11.20;99.90;;;;;;6228678;22;20016;-92
2022/09/19 05:58:47;;;;;;;0.00;0.00;;;10.70;99.90;;;;;;6253538;22;20016;-94
2022/09/19 06:01:14;;;;;;;0.03;0.00;;;10.70;99.90;;;;;;6252139;22;20456;-95
2022/09/19 06:03:40;;;;;;;0.00;0.00;;;10.70;99.90;;;;;;6250724;22;20015;-96
2022/09/19 06:06:14;;;;;;;0.03;0.03;;;10.10;99.90;;;;;;6251891;22;20035;-91
2022/09/19 06:08:42;;;;;;;0.00;0.00;;;10.60;99.90;;;;;;6275788;22;20012;-92
2022/09/19 06:11:14;;;;;;;0.00;0.00;;;10.70;99.90;;;;;;6230852;22;20098;-92
2022/09/19 06:16:44;;;;;;;0.00;0.00;;;10.70;99.90;;;;;;6285875;22;20024;-96
2022/09/19 06:19:16;;;;;;;0.10;0.10;;;11.10;99.90;;;;;;6262966;22;20019;-93
2022/09/19 06:21:41;;;;;;;0.00;0.00;;;10.70;99.90;;;;;;6233334;22;20027;-93
2022/09/19 06:24:07;;;;;;;0.00;0.00;;;10.70;99.90;;;;;;6261177;22;20015;-95
2022/09/19 06:26:34;;;;;;;0.30;0.13;;;10.80;99.90;;;;;;6274797;22;20391;-92
2022/09/19 06:29:03;;;;;;;0.00;0.00;;;10.80;99.90;;;;;;6276097;22;20020;-92
2022/09/19 06:31:29;;;;;;;0.17;0.17;;;10.80;99.90;;;;;;6223491;22;20345;-93
2022/09/19 06:33:55;;;;;;;0.00;0.00;;;10.80;99.90;;;;;;6274208;22;20016;-93
2022/09/19 06:36:21;;;;;;;0.00;0.00;;;10.80;99.90;;;;;;6250605;22;20086;-92
2022/09/19 06:38:50;;;;;;;0.00;0.00;;;10.80;99.90;;;;;;6256063;22;20026;-96
2022/09/19 06:41:15;;;;;;;0.00;0.00;;;10.80;99.90;;;;;;6248967;22;20015;-94
2022/09/19 06:43:50;;;;;;;0.00;0.00;;;10.80;99.90;;;;;;6251436;22;20022;-96
2022/09/19 06:46:36;;;;;;;;;;;;;;;;;;;;;
2022/09/19 06:49:18;;;;;;;0.00;0.00;;;11.00;99.90;;;;;;6250058;22;20102;-90
2022/09/19 06:51:56;;;;;;;0.00;0.00;;;11.20;99.90;;;;;;6251904;22;20073;-92
2022/09/19 06:55:04;;;;;;;0.08;0.00;;;11.30;99.90;;;;;;6230556;23;20074;-93
2022/09/19 06:57:47;;;;;;;0.00;0.00;;;11.90;99.90;;;;;;6251009;22;20031;-92
2022/09/19 07:00:18;;;;;;;0.00;0.00;;;10.70;99.90;;;;;;6251362;22;20058;-91
2022/09/19 07:02:55;;;;;;;0.32;0.10;;;11.60;99.90;;;;;;6249335;22;20016;-91
2022/09/19 07:05:52;;;;;;;0.00;0.00;;;11.50;99.90;;;;;;6227950;22;20054;-95
2022/09/19 07:08:25;;;;;;;0.10;0.10;;;11.30;99.90;;;;;;6250531;22;20016;-93
2022/09/19 07:11:11;;;;;;;;;;;;;;;;;;;;;
2022/09/19 07:29:02;;;;;;;0.00;0.00;;;11.50;99.90;;;;;;6186107;23;20082;-95
2022/09/19 07:31:34;;;;;;;0.00;0.00;;;11.60;99.90;;;;;;6203551;22;20016;-96
2022/09/19 07:34:35;;;;;;;0.00;0.00;;;11.80;99.90;;;;;;6251663;22;20020;-95
2022/09/19 07:37:13;;;;;;;0.40;0.00;;;12.40;99.90;;;;;;6250444;22;20022;-96
2022/09/19 07:39:39;;;;;;;0.00;0.00;;;12.70;99.90;;;;;;6202727;22;20016;-86
2022/09/19 07:42:25;;;;;;;0.00;0.00;;;13.30;99.90;;;;;;6278435;22;20016;-94
2022/09/19 07:45:16;;;;;;;0.00;0.00;;;13.30;99.90;;;;;;6250140;22;20019;-96
2022/09/19 07:48:02;;;;;;;;;;;;;;;;;;;;;
2022/09/19 07:50:36;;;;;;;0.00;0.00;;;12.90;99.90;;;;;;6274948;22;20363;-96
2022/09/19 07:53:10;;;;;;;0.00;0.00;;;12.80;99.90;;;;;;6224668;22;20012;-93
2022/09/19 07:55:51;;;;;;;0.10;0.10;;;12.60;99.90;;;;;;6248335;22;20023;-95
2022/09/19 07:58:21;;;;;;;0.00;0.00;;;12.50;99.90;;;;;;6250528;22;20024;-93
2022/09/19 08:01:10;;;;;;;;;;;;;;;;;;;;;
2022/09/19 08:14:20;;;;;;;0.22;0.20;;;12.50;99.90;;;;;;6170494;23;20013;-89
2022/09/19 08:16:45;;;;;;;0.00;0.00;;;12.60;99.90;;;;;;6139267;22;20021;-85
2022/09/19 08:19:31;;;;;;;0.00;0.00;;;12.60;99.90;;;;;;6225435;22;20022;-92
2022/09/19 08:22:34;;;;;;;0.85;0.17;;;12.70;99.90;;;;;;6201774;22;20023;-96
2022/09/19 08:47:32;;;;;;;0.00;0.00;;;13.90;99.90;;;;;;6094858;23;20378;-96
2022/09/19 08:54:36;;;;;;;0.00;0.00;;;14.10;99.90;;;;;;6018282;23;20023;-92
2022/09/19 08:57:53;;;;;;;;;;;;;;;;;;;;;
2022/09/19 09:00:58;;;;;;;0.00;0.00;;;14.20;99.90;;;;;;6126296;23;20335;-93
2022/09/19 09:03:55;;;;;;;0.00;0.00;;;14.20;99.90;;;;;;6117759;23;20052;-91
2022/09/19 09:06:50;;;;;;;0.05;0.00;;;14.30;99.90;;;;;;6200519;23;20023;-90
2022/09/19 09:09:51;;;;;;;0.00;0.00;;;14.30;99.90;;;;;;6190639;23;20058;-94
2022/09/19 09:12:33;;;;;;;0.00;0.00;;;14.10;99.90;;;;;;6192673;23;20020;-88
2022/09/19 09:15:49;;;;;;;0.00;0.00;;;14.40;99.90;;;;;;6193764;23;20027;-92
2022/09/19 09:25:29;;;;;;;0.00;0.00;;;14.60;99.90;;;;;;6245351;23;20023;-92
2022/09/19 09:31:26;;;;;;;0.10;0.10;;;14.60;99.90;;;;;;6227021;23;20048;-95
2022/09/19 09:34:15;;;;;;;0.00;0.00;;;14.70;99.90;;;;;;6199450;23;20452;-95
2022/09/19 09:37:12;;;;;;;0.00;0.00;;;14.70;99.90;;;;;;6196486;23;20024;-95
2022/09/19 09:43:05;;;;;;;0.00;0.00;;;15.00;99.90;;;;;;6161804;23;20025;-95
2022/09/19 10:15:22;;;;;;;0.00;0.00;;;14.50;99.90;;;;;;6016943;23;20034;-94
2022/09/19 10:37:09;;;;;;;0.00;0.00;;;12.50;99.90;;;;;;5938216;24;20013;-91
2022/09/19 10:39:50;;;;;;;0.00;0.00;;;12.70;99.90;;;;;;6029987;23;20030;-94
2022/09/19 10:42:54;;;;;;;0.00;0.00;;;12.30;99.90;;;;;;6162213;23;20124;-93
2022/09/19 10:45:46;;;;;;;0.00;0.00;;;12.30;99.90;;;;;;6189573;23;20056;-93
2022/09/19 10:48:33;;;;;;;0.00;0.00;;;12.50;99.90;;;;;;6162124;23;20055;-90
2022/09/19 10:51:08;;;;;;;0.00;0.00;;;12.80;99.90;;;;;;6162851;23;20020;-93
2022/09/19 10:53:39;;;;;;;0.08;0.00;;;13.10;99.90;;;;;;6162304;23;20021;-94
2022/09/19 10:56:22;;;;;;;0.00;0.00;;;13.30;99.90;;;;;;6162092;23;20100;-94
2022/09/19 10:59:07;;;;;;;0.00;0.00;;;13.40;99.90;;;;;;6162051;23;20024;-93
2022/09/19 11:01:33;;;;;;;0.00;0.00;;;13.50;99.90;;;;;;6163026;23;20017;-92
2022/09/19 11:04:28;;;;;;;0.00;0.00;;;13.60;99.90;;;;;;6161421;23;20096;-92
2022/09/19 11:07:02;;;;;;;0.00;0.00;;;13.70;99.90;;;;;;6164369;23;20016;-89
2022/09/19 11:09:37;;;;;;;0.47;0.47;;;13.90;99.90;;;;;;6170223;23;20453;-93
2022/09/19 11:12:20;;;;;;;1.13;0.10;;;14.20;99.90;;;;;;6202729;22;20012;-93
2022/09/19 11:15:27;;;;;;;0.00;0.00;;;14.60;99.90;;;;;;6276940;22;20024;-92
2022/09/19 11:18:48;;;;;;;;;;;;;;;;;;;;;
2022/09/19 11:21:54;;;;;;;0.03;0.00;;;14.80;99.90;;;;;;6185759;23;20071;-96
2022/09/19 11:25:34;;;;;;;;;;;;;;;;;;;;;
2022/09/19 11:28:36;;;;;;;0.00;0.00;;;14.50;99.90;;;;;;6195376;22;20031;-93
2022/09/19 11:31:10;;;;;;;0.10;0.10;;;14.90;99.90;;;;;;6225558;22;20019;-92
2022/09/19 11:34:33;;;;;;;0.05;0.05;;;15.00;99.90;;;;;;6223261;22;20475;-93
2022/09/19 11:37:25;;;;;;;0.00;0.00;;;15.10;99.90;;;;;;6159700;22;20019;-89
2022/09/19 11:40:12;;;;;;;0.10;0.10;;;15.10;99.90;;;;;;6222298;22;20333;-87
2022/09/19 11:42:50;;;;;;;0.03;0.03;;;14.10;99.90;;;;;;6247895;22;20099;-90
2022/09/19 11:45:18;;;;;;;0.08;0.08;;;15.00;99.90;;;;;;6222492;22;20020;-91
2022/09/19 11:48:01;;;;;;;0.00;0.00;;;14.90;99.90;;;;;;6221306;22;20016;-89
2022/09/19 11:50:54;;;;;;;0.00;0.00;;;14.80;99.90;;;;;;6247998;22;20058;-90
2022/09/19 11:54:04;;;;;;;0.05;0.05;;;14.70;99.90;;;;;;6248129;22;20069;-91
2022/09/19 11:56:39;;;;;;;1.00;0.13;;;14.70;99.90;;;;;;6193056;23;20047;-91
2022/09/19 11:59:39;;;;;;;0.03;0.00;;;14.80;99.90;;;;;;6191402;23;20028;-91
2022/09/19 12:02:28;;;;;;;0.10;0.10;;;14.90;99.90;;;;;;6216780;23;20373;-91
2022/09/19 12:05:03;;;;;;;0.28;0.03;;;15.10;99.90;;;;;;6192413;23;20016;-90
2022/09/19 12:07:57;;;;;;;0.10;0.10;;;15.30;99.90;;;;;;6218002;23;20540;-91
2022/09/19 12:10:35;;;;;;;0.00;0.00;;;15.30;99.90;;;;;;6218031;23;20019;-91
2022/09/19 12:13:29;;;;;;;0.10;0.10;;;15.20;99.90;;;;;;6243136;23;20016;-90
2022/09/19 12:16:09;;;;;;;0.00;0.00;;;15.60;99.90;;;;;;6192918;23;20016;-92
2022/09/19 12:19:01;;;;;;;0.00;0.00;;;15.90;99.90;;;;;;6217595;23;20020;-90
2022/09/19 12:21:39;;;;;;;0.00;0.00;;;16.10;99.90;;;;;;6187335;23;20038;-95
2022/09/19 12:24:52;;;;;;;0.05;0.05;;;15.90;99.90;;;;;;6194610;23;20024;-93
2022/09/19 12:27:37;;;;;;;0.13;0.13;;;15.40;99.90;;;;;;6233469;23;20088;-91
2022/09/19 12:30:18;;;;;;;0.00;0.00;;;15.10;99.90;;;;;;6216499;23;20047;-93
2022/09/19 12:32:59;;;;;;;0.00;0.00;;;14.80;99.90;;;;;;6243940;23;20058;-94
2022/09/19 12:35:48;;;;;;;0.00;0.00;;;14.70;99.90;;;;;;6193364;23;20026;-89
2022/09/19 12:38:26;;;;;;;0.00;0.00;;;14.60;99.90;;;;;;6217424;23;20023;-90
2022/09/19 12:41:20;;;;;;;0.10;0.00;;;14.50;99.90;;;;;;6218352;23;20337;-91
2022/09/19 12:44:31;;;;;;;0.00;0.00;;;14.50;99.90;;;;;;6219030;23;20353;-95
2022/09/19 12:47:01;;;;;;;0.00;0.00;;;13.90;99.90;;;;;;6194113;23;20020;-96
2022/09/19 12:49:30;;;;;;;0.00;0.00;;;14.50;99.90;;;;;;6217102;23;20452;-90
2022/09/19 12:52:34;;;;;;;0.10;0.10;;;14.50;99.90;;;;;;6193243;23;20022;-90
2022/09/19 12:55:17;;;;;;;0.00;0.00;;;14.60;99.90;;;;;;6230632;22;20047;-93
2022/09/19 12:58:03;;;;;;;0.10;0.10;;;14.80;99.90;;;;;;6223364;22;20016;-91
2022/09/19 13:01:23;;;;;;;0.10;0.08;;;15.00;99.90;;;;;;6251424;22;20020;-96
2022/09/19 13:04:21;;;;;;;;;;;14.70;99.90;;;;;;6251769;22;20012;-96
2022/09/19 13:07:13;;;;;;;0.03;0.03;;;15.30;99.90;;;;;;6220990;22;19922;-96
2022/09/19 13:10:11;;;;;;;0.00;0.00;;;15.30;99.90;;;;;;6224014;22;20012;-92
2022/09/19 13:12:57;;;;;;;0.00;0.00;;;15.50;99.90;;;;;;6224803;22;20022;-92
2022/09/19 13:15:33;;;;;;;0.10;0.10;;;15.60;99.90;;;;;;6225136;22;20123;-91
2022/09/19 13:27:45;;;;;;;0.17;0.08;;;14.90;99.90;;;;;;6241248;22;20027;-90
2022/09/19 13:30:51;;;;;;;0.63;0.30;;;14.80;99.90;;;;;;6225448;22;20457;-96
2022/09/19 13:33:48;;;;;;;;;;;;;;;;;;;;;
2022/09/19 13:36:40;;;;;;;0.10;0.10;;;14.90;99.90;;;;;;6251646;22;20033;-92
2022/09/19 13:50:43;;;;;;;;;;;;;;;;;;;;;
2022/09/19 13:53:35;;;;;;;0.00;0.00;;;14.30;99.90;;;;;;6284592;22;20014;-91
2022/09/19 13:56:32;;;;;;;0.17;0.10;;;14.50;99.90;;;;;;6261195;22;20011;-93
2022/09/19 13:59:59;;;;;;;;;;;;;;;;;;;;;
2022/09/19 14:02:41;;;;;;;0.00;0.00;;;13.60;99.90;;;;;;6280085;22;20011;-90
2022/09/19 14:05:20;;;;;;;0.00;0.00;;;14.20;99.90;;;;;;6282496;22;20457;-96
2022/09/19 14:08:47;;;;;;;0.00;0.00;;;14.00;99.90;;;;;;6261308;22;20068;-96
2022/09/19 14:11:53;;;;;;;0.00;0.00;;;13.90;99.90;;;;;;6161491;23;20017;-93
2022/09/19 14:26:01;;;;;;;;;;;;;;;;;;;;;
2022/09/19 14:29:33;;;;;;;;;;;;;;;;;;;;;
2022/09/19 14:32:38;;;;;;;0.00;0.00;;;14.50;99.90;;;;;;6197316;23;20016;-96
2022/09/19 14:35:24;;;;;;;;;;;;;;;;;;;;;
2022/09/19 14:47:14;;;;;;;0.10;0.00;;;13.80;99.90;;;;;;6246489;23;20020;-96
2022/09/19 14:49:49;;;;;;;0.70;0.03;;;14.10;99.90;;;;;;6180238;23;20102;-96
2022/09/19 14:53:13;;;;;;;0.13;0.08;;;13.50;99.90;;;;;;6195704;23;20016;-93
2022/09/19 14:56:44;;;;;;;0.47;0.30;;;14.10;99.90;;;;;;6214700;23;20024;-96
2022/09/19 14:59:44;;;;;;;0.00;0.00;;;14.00;99.90;;;;;;6189329;23;20107;-92
2022/09/19 15:02:43;;;;;;;0.10;0.10;;;14.10;99.90;;;;;;6187739;23;20024;-94
2022/09/19 15:08:31;;;;;;;0.00;0.00;;;14.60;99.90;;;;;;6201622;23;20055;-96
2022/09/19 15:11:23;;;;;;;0.00;0.00;;;14.80;99.90;;;;;;6194963;23;20020;-94
2022/09/19 15:17:37;;;;;;;0.25;0.00;;;14.70;99.90;;;;;;6245660;23;20108;-89
2022/09/19 15:20:23;;;;;;;0.10;0.10;;;15.50;99.90;;;;;;6247245;23;20024;-90
2022/09/19 15:23:12;;;;;;;0.00;0.00;;;14.70;99.90;;;;;;6196043;23;20062;-89
2022/09/19 15:26:07;;;;;;;0.10;0.10;;;14.60;99.90;;;;;;6195712;23;20016;-93
2022/09/19 15:29:03;;;;;;;;;;;;;;;;;;;;;
2022/09/19 15:31:56;;;;;;;0.00;0.00;;;14.50;99.90;;;;;;6218651;23;20028;-93
2022/09/19 15:34:27;;;;;;;0.00;0.00;;;14.70;99.90;;;;;;6192299;23;20016;-89
2022/09/19 15:36:58;;;;;;;0.08;0.05;;;14.80;99.90;;;;;;6192921;23;20042;-90
2022/09/19 15:39:31;;;;;;;0.00;0.00;;;14.80;99.90;;;;;;6218254;23;20016;-90
2022/09/19 15:42:17;;;;;;;0.10;0.10;;;14.80;99.90;;;;;;6194323;23;20352;-95
2022/09/19 15:44:48;;;;;;;0.00;0.00;;;14.80;99.90;;;;;;6196614;22;20447;-93
2022/09/19 15:47:26;;;;;;;0.22;0.00;;;14.70;99.90;;;;;;6223336;22;20077;-93
2022/09/19 15:50:03;;;;;;;0.00;0.00;;;14.70;99.90;;;;;;6249814;22;20018;-94
2022/09/19 15:52:33;;;;;;;0.00;0.00;;;15.40;99.90;;;;;;6248716;22;20016;-92
2022/09/19 15:55:00;;;;;;;0.00;0.00;;;14.70;99.90;;;;;;6223511;22;20015;-89
2022/09/19 15:57:32;;;;;;;2.38;0.05;;;14.70;99.90;;;;;;6222725;22;20440;-90
2022/09/19 16:00:09;;;;;;;0.10;0.10;;;14.60;99.90;;;;;;6249670;22;20054;-91
2022/09/19 16:02:43;;;;;;;0.17;0.10;;;14.50;99.90;;;;;;6222670;22;20019;-91
2022/09/19 16:05:16;;;;;;;0.10;0.10;;;14.50;99.90;;;;;;6247984;22;20036;-92
2022/09/19 16:11:03;;;;;;;;;;;;;;;;;;;;;
2022/09/19 16:13:45;;;;;;;0.73;0.00;;;14.30;99.90;;;;;;6249660;22;20059;-93
2022/09/19 16:16:35;;;;;;;0.00;0.00;;;14.40;99.90;;;;;;6199519;22;20058;-94
2022/09/19 16:19:04;;;;;;;0.00;0.00;;;14.30;99.90;;;;;;6199478;22;20049;-92
2022/09/19 16:24:54;;;;;;;0.03;0.03;;;14.20;99.90;;;;;;6240000;22;20015;-94
2022/09/19 16:27:30;;;;;;;0.00;0.00;;;13.80;99.90;;;;;;6223804;22;20458;-92
2022/09/19 16:30:01;;;;;;;0.00;0.00;;;14.20;99.90;;;;;;6226291;22;20022;-93
2022/09/19 16:32:33;;;;;;;0.00;0.00;;;14.10;99.90;;;;;;6249672;22;20095;-92
2022/09/19 16:35:07;;;;;;;0.10;0.00;;;14.00;99.90;;;;;;6250535;22;20020;-91
2022/09/19 16:37:39;;;;;;;0.00;0.00;;;13.50;99.90;;;;;;6224206;22;20459;-91
2022/09/19 16:40:19;;;;;;;0.10;0.00;;;13.80;99.90;;;;;;6223858;22;20460;-91
2022/09/19 16:42:51;;;;;;;0.00;0.00;;;13.70;99.90;;;;;;6223752;22;20141;-91
2022/09/19 16:45:42;;;;;;;2.30;0.10;;;13.70;99.90;;;;;;6211544;22;20448;-91
2022/09/19 16:48:18;;;;;;;0.43;0.10;;;13.60;99.90;;;;;;6223020;22;20468;-92
2022/09/19 16:51:29;;;;;;;;;;;;;;;;;;;;;
2022/09/19 16:54:11;;;;;;;0.10;0.10;;;13.40;99.90;;;;;;6247526;22;20464;-90
2022/09/19 16:56:50;;;;;;;0.20;0.20;;;13.30;99.90;;;;;;6221957;22;20016;-90
2022/09/19 16:59:21;;;;;;;0.00;0.00;;;13.30;99.90;;;;;;6222897;22;20090;-90
2022/09/19 17:01:49;;;;;;;0.10;0.00;;;13.20;99.90;;;;;;6248767;22;20470;-89
2022/09/19 17:04:21;;;;;;;0.00;0.00;;;13.20;99.90;;;;;;6247196;22;20020;-90
2022/09/19 17:06:54;;;;;;;0.00;0.00;;;13.50;99.90;;;;;;6196430;22;20023;-89
2022/09/19 17:09:31;;;;;;;0.10;0.10;;;13.10;99.90;;;;;;6202133;22;20016;-89
2022/09/19 17:12:03;;;;;;;0.35;0.10;;;13.00;99.90;;;;;;6223274;22;20020;-90
2022/09/19 17:14:32;;;;;;;0.00;0.00;;;13.00;99.90;;;;;;6223454;22;20467;-90
2022/09/19 17:17:08;;;;;;;;;;;;;;;;;;;;;
2022/09/19 17:19:34;;;;;;;0.00;0.00;;;12.90;99.90;;;;;;6248203;22;20016;-90
2022/09/19 17:22:06;;;;;;;0.55;0.10;;;12.80;99.90;;;;;;6223070;22;20058;-90
2022/09/19 17:24:32;;;;;;;0.00;0.00;;;12.80;99.90;;;;;;6222736;22;20012;-89
2022/09/19 17:26:58;;;;;;;;;;;12.80;99.90;;;;;;6221949;22;20054;-93
2022/09/19 17:29:26;;;;;;;0.00;0.00;;;12.80;99.90;;;;;;6222456;22;19915;-92
2022/09/19 17:31:55;;;;;;;0.15;0.15;;;12.80;99.90;;;;;;6197955;22;20028;-94
2022/09/19 17:34:30;;;;;;;0.10;0.05;;;12.70;99.90;;;;;;6224384;22;20011;-93
2022/09/19 17:36:58;;;;;;;0.10;0.10;;;12.70;99.90;;;;;;6221650;22;20507;-93
2022/09/19 17:39:30;;;;;;;0.10;0.10;;;12.60;99.90;;;;;;6222270;22;20057;-93
2022/09/19 17:41:56;;;;;;;0.00;0.00;;;12.70;99.90;;;;;;6221945;22;20104;-87
2022/09/19 17:44:22;;;;;;;0.07;0.07;;;12.70;99.90;;;;;;6221742;22;20051;-90
2022/09/19 17:46:55;;;;;;;0.00;0.00;;;12.60;99.90;;;;;;6219835;22;20258;-91
2022/09/19 17:49:42;;;;;;;0.22;0.00;;;12.70;99.90;;;;;;6247512;22;20019;-96
2022/09/19 17:52:07;;;;;;;0.60;0.10;;;12.60;99.90;;;;;;6200099;22;20019;-89
2022/09/19 17:54:38;;;;;;;0.10;0.10;;;12.60;99.90;;;;;;6225078;22;20016;-88
2022/09/19 17:57:04;;;;;;;0.00;0.00;;;12.50;99.90;;;;;;6223817;22;20530;-93
2022/09/19 17:59:37;;;;;;;1.67;0.20;;;12.40;99.90;;;;;;6224674;22;20027;-90
2022/09/19 18:05:10;;;;;;;0.93;0.30;;;11.90;99.90;;;;;;6233213;22;20028;-89
2022/09/19 18:07:43;;;;;;;0.90;0.40;;;12.20;99.90;;;;;;6198566;22;20020;-87
2022/09/19 18:10:11;;;;;;;0.20;0.20;;;12.30;99.90;;;;;;6223582;22;20016;-91
2022/09/19 18:12:37;;;;;;;0.15;0.15;;;12.20;99.90;;;;;;6198034;22;20321;-86
2022/09/19 18:15:14;;;;;;;0.10;0.10;;;12.10;99.90;;;;;;6221974;22;20031;-88
2022/09/19 18:17:46;;;;;;;0.32;0.20;;;12.10;99.90;;;;;;6198051;22;20031;-86
2022/09/19 18:20:21;;;;;;;;;;;;;;;;;;;;;
2022/09/19 18:22:50;;;;;;;0.20;0.10;;;11.90;99.90;;;;;;6247684;22;20026;-91
2022/09/19 18:25:22;;;;;;;0.32;0.30;;;12.00;99.90;;;;;;6248623;22;20451;-88
2022/09/19 18:27:50;;;;;;;0.75;0.30;;;11.30;99.90;;;;;;6223861;22;20091;-88
2022/09/19 18:30:22;;;;;;;0.30;0.30;;;11.90;99.90;;;;;;6185434;22;20022;-89
2022/09/19 18:32:59;;;;;;;0.65;0.40;;;11.90;99.90;;;;;;6248030;22;20019;-88
2022/09/19 18:35:25;;;;;;;0.50;0.20;;;11.70;99.90;;;;;;6223437;22;20062;-88
2022/09/19 18:37:54;;;;;;;0.30;0.27;;;11.00;99.90;;;;;;6222342;22;20020;-88
2022/09/19 18:40:20;;;;;;;1.98;0.68;;;11.60;99.90;;;;;;6248155;22;20392;-87
2022/09/19 18:42:58;;;;;;;2.13;0.17;;;11.60;99.90;;;;;;6248264;22;20073;-96
2022/09/19 18:46:10;;;;;;;;;;;;;;;;;;;;;
2022/09/19 18:49:26;;;;;;;0.30;0.30;;;11.50;99.90;;;;;;6248595;22;20432;-94
2022/09/19 18:52:04;;;;;;;0.20;0.10;;;11.40;99.90;;;;;;6222425;22;20081;-90
2022/09/19 18:58:46;;;;;;;1.50;0.55;;;11.40;99.90;;;;;;6149329;23;20022;-92
2022/09/19 19:13:10;;;;;;;0.00;0.00;;;10.40;99.90;;;;;;6275756;22;20026;-96
2022/09/19 19:15:49;;;;;;;0.00;0.00;;;11.20;99.90;;;;;;6192562;22;20019;-92
2022/09/19 19:21:58;;;;;;;0.20;0.05;;;11.40;99.90;;;;;;6271768;22;20030;-93
2022/09/19 19:24:30;;;;;;;0.10;0.10;;;11.00;99.90;;;;;;6224058;22;20436;-93
2022/09/19 19:27:01;;;;;;;0.10;0.10;;;10.70;99.90;;;;;;6223206;22;20246;-94
2022/09/19 19:29:57;;;;;;;;;;;;;;;;;;;;;
2022/09/19 19:32:23;;;;;;;0.10;0.10;;;9.80;99.90;;;;;;6228148;22;20038;-91
2022/09/19 19:34:56;;;;;;;0.15;0.15;;;10.80;99.90;;;;;;6248612;22;20082;-90
2022/09/19 19:37:39;;;;;;;;;;;;;;;;;;;;;
2022/09/19 19:40:07;;;;;;;0.10;0.00;;;10.80;99.90;;;;;;6248657;22;20019;-91
2022/09/19 19:42:38;;;;;;;2.30;0.20;;;10.80;99.90;;;;;;6223565;22;20099;-93
2022/09/19 19:45:09;;;;;;;0.00;0.00;;;10.80;99.90;;;;;;6223738;22;20016;-93
2022/09/19 19:47:38;;;;;;;0.20;0.20;;;10.70;99.90;;;;;;6224318;22;20020;-93
2022/09/19 19:50:14;;;;;;;;;;;;;;;;;;;;;
2022/09/19 19:52:40;;;;;;;0.10;0.10;;;10.60;99.90;;;;;;6246766;22;20081;-93
2022/09/19 19:55:11;;;;;;;0.20;0.20;;;10.70;99.90;;;;;;6217620;22;20024;-91
2022/09/19 19:57:55;;;;;;;0.00;0.00;;;10.60;99.90;;;;;;6244657;22;20022;-90
2022/09/19 20:00:28;;;;;;;0.40;0.20;;;10.80;99.90;;;;;;6188042;22;20016;-90
2022/09/19 20:02:57;;;;;;;0.25;0.25;;;10.60;99.90;;;;;;6221882;22;20024;-91
2022/09/19 20:05:23;;;;;;;0.22;0.22;;;10.60;99.90;;;;;;6222791;22;20019;-89
2022/09/19 20:07:49;;;;;;;;;;;10.60;99.90;;;;;;6197519;22;20023;-89
2022/09/19 20:10:15;;;;;;;0.00;0.00;;;10.50;99.90;;;;;;6222931;22;19923;-90
2022/09/19 20:12:50;;;;;;;0.10;0.10;;;10.50;99.90;;;;;;6222368;22;20378;-90
2022/09/19 20:15:17;;;;;;;0.63;0.30;;;10.50;99.90;;;;;;6221465;22;20016;-89
2022/09/19 20:17:45;;;;;;;0.10;0.10;;;10.50;99.90;;;;;;6223493;22;20012;-90
2022/09/19 20:20:31;;;;;;;2.28;0.20;;;10.40;99.90;;;;;;6248349;22;20074;-94
2022/09/19 20:23:15;;;;;;;;;;;;;;;;;;;;;
2022/09/19 20:26:19;;;;;;;;;;;;;;;;;;;;;
2022/09/19 20:29:00;;;;;;;0.20;0.20;;;9.90;99.90;;;;;;6207605;22;20022;-94
2022/09/19 20:31:37;;;;;;;0.10;0.10;;;10.50;99.90;;;;;;6224143;22;20018;-92
2022/09/19 20:34:21;;;;;;;0.10;0.10;;;10.30;99.90;;;;;;6223859;22;20503;-95
2022/09/19 20:37:10;;;;;;;0.13;0.13;;;10.20;99.90;;;;;;6200577;22;20081;-91
2022/09/19 20:39:36;;;;;;;0.20;0.20;;;10.30;99.90;;;;;;6200955;22;20038;-92
2022/09/19 20:42:04;;;;;;;0.20;0.20;;;10.60;99.90;;;;;;6221720;22;20019;-91
2022/09/19 20:48:09;;;;;;;0.20;0.10;;;10.40;99.90;;;;;;6121754;22;20021;-90
2022/09/19 20:50:35;;;;;;;0.10;0.10;;;9.50;99.90;;;;;;6223706;22;20452;-85
2022/09/19 20:53:03;;;;;;;0.17;0.07;;;10.30;99.90;;;;;;6222709;22;20023;-85
2022/09/19 20:55:29;;;;;;;0.10;0.10;;;10.30;99.90;;;;;;6219960;22;20426;-86
2022/09/19 20:57:57;;;;;;;0.60;0.20;;;10.30;99.90;;;;;;6195606;22;20086;-88
2022/09/19 21:00:31;;;;;;;0.00;0.00;;;10.30;99.90;;;;;;6220811;22;20027;-88
2022/09/19 21:02:59;;;;;;;0.00;0.00;;;10.20;99.90;;;;;;6199537;22;20019;-86
2022/09/19 21:05:30;;;;;;;0.00;0.00;;;10.40;99.90;;;;;;6222739;22;20503;-87
2022/09/19 21:07:58;;;;;;;0.22;0.22;;;10.50;99.90;;;;;;6198963;22;20015;-86
2022/09/19 21:10:33;;;;;;;0.35;0.10;;;10.40;99.90;;;;;;6247623;22;20124;-91
2022/09/19 21:13:01;;;;;;;0.00;0.00;;;9.60;99.90;;;;;;6223864;22;20011;-86
2022/09/19 21:15:29;;;;;;;0.10;0.03;;;10.40;99.90;;;;;;6197917;22;20474;-86
2022/09/19 21:17:55;;;;;;;0.15;0.15;;;10.50;99.90;;;;;;6223675;22;20074;-86
2022/09/19 21:20:21;;;;;;;0.00;0.00;;;10.50;99.90;;;;;;6223287;22;20444;-86
2022/09/19 21:22:49;;;;;;;0.10;0.10;;;10.60;99.90;;;;;;6223145;22;20090;-84
2022/09/19 21:25:15;;;;;;;0.00;0.00;;;10.60;99.90;;;;;;6248503;22;20020;-86
2022/09/19 21:27:41;;;;;;;0.10;0.10;;;10.80;99.90;;;;;;6200729;22;20023;-87
2022/09/19 21:30:12;;;;;;;0.55;0.10;;;10.60;99.90;;;;;;6225515;22;20249;-87
2022/09/19 21:32:42;;;;;;;0.10;0.10;;;10.70;99.90;;;;;;6225567;22;20015;-87
2022/09/19 21:35:11;;;;;;;0.15;0.10;;;10.80;99.90;;;;;;6225330;22;20022;-87
2022/09/19 21:37:39;;;;;;;0.00;0.00;;;10.70;99.90;;;;;;6226298;22;20050;-83
2022/09/19 21:40:11;;;;;;;0.20;0.10;;;10.70;99.90;;;;;;6225177;22;20030;-92
2022/09/19 21:42:41;;;;;;;0.00;0.00;;;10.80;99.90;;;;;;6225593;22;20019;-86
2022/09/19 21:45:07;;;;;;;0.10;0.00;;;10.80;99.90;;;;;;6249885;22;20100;-87
2022/09/19 21:47:33;;;;;;;0.00;0.00;;;10.80;99.90;;;;;;6193445;23;20016;-84
2022/09/19 21:49:59;;;;;;;0.00;0.00;;;10.80;99.90;;;;;;6218896;22;20043;-88